This is the latest recevied weather packets stored in our database for station/object HA5KNF-10. If no packets are shown the sender has not sent any weather packets the latest 10 day(s).
| Time | Temp. | Humidity | Pressure | Rain* | Wind** | Luminosity | Snow |
|---|---|---|---|---|---|---|---|
| 1788288942 | 25° C | 33% | 1005.9 hPa | - | - | - | - |
| 1788285402 | 25.56° C | 32% | 1005.3 hPa | - | - | - | - |
| 1788281862 | 26.11° C | 30% | 1005 hPa | - | - | - | - |
| 1788274781 | 27.22° C | 30% | 1005.2 hPa | - | - | - | - |
| 1788271241 | 27.22° C | 31% | 1005.2 hPa | - | - | - | - |
| 1788267701 | 27.22° C | 32% | 1005.3 hPa | - | - | - | - |
| 1788264161 | 26.67° C | 33% | 1005.5 hPa | - | - | - | - |
| 1788257080 | 25.56° C | 36% | 1006 hPa | - | - | - | - |
| 1788253540 | 24.44° C | 38% | 1006.1 hPa | - | - | - | - |
| 1788250000 | 23.89° C | 40% | 1006 hPa | - | - | - | - |
| 1788246460 | 23.89° C | 42% | 1005.5 hPa | - | - | - | - |
| 1788242920 | 23.89° C | 40% | 1005 hPa | - | - | - | - |
| 1788239380 | 23.89° C | 41% | 1004 hPa | - | - | - | - |
| 1788235840 | 24.44° C | 40% | 1003.8 hPa | - | - | - | - |
| 1788232299 | 25° C | 41% | 1002.8 hPa | - | - | - | - |
| 1788228759 | 25° C | 40% | 1002.5 hPa | - | - | - | - |
| 1788225219 | 25° C | 40% | 1003 hPa | - | - | - | - |
| 1788221679 | 25° C | 39% | 1002.4 hPa | - | - | - | - |
| 1788218139 | 25.56° C | 39% | 1000.4 hPa | - | - | - | - |
| 1788214599 | 25° C | 40% | 1001 hPa | - | - | - | - |
| 1788211059 | 25.56° C | 38% | 1000.9 hPa | - | - | - | - |
| 1788207519 | 25.56° C | 37% | 1000.4 hPa | - | - | - | - |
| 1788203979 | 26.11° C | 35% | 999.9 hPa | - | - | - | - |
| 1788200438 | 26.67° C | 33% | 999.6 hPa | - | - | - | - |
| 1788196898 | 27.22° C | 35% | 999.5 hPa | - | - | - | - |
* Rain since midnight (hover to see other rain measurements)
** Current wind speed in m/s (hover to see current wind gust speed)